sensor_id;sensor_type;location;lat;lon;timestamp;temperature;humidity
47660;DHT22;33403;43.608;1.458;2023-05-07T00:01:42;17.70;99.90
47660;DHT22;33403;43.608;1.458;2023-05-07T00:04:08;17.70;99.90
47660;DHT22;33403;43.608;1.458;2023-05-07T00:06:33;17.70;99.90
47660;DHT22;33403;43.608;1.458;2023-05-07T00:08:59;17.70;99.90
47660;DHT22;33403;43.608;1.458;2023-05-07T00:11:26;17.70;99.90
47660;DHT22;33403;43.608;1.458;2023-05-07T00:13:52;17.70;99.90
47660;DHT22;33403;43.608;1.458;2023-05-07T00:16:18;17.60;99.90
47660;DHT22;33403;43.608;1.458;2023-05-07T00:18:44;17.60;99.90
47660;DHT22;33403;43.608;1.458;2023-05-07T00:21:10;17.70;99.90
47660;DHT22;33403;43.608;1.458;2023-05-07T00:23:36;17.80;99.90
47660;DHT22;33403;43.608;1.458;2023-05-07T00:26:02;17.80;99.90
47660;DHT22;33403;43.608;1.458;2023-05-07T00:28:28;17.80;99.90
47660;DHT22;33403;43.608;1.458;2023-05-07T00:30:54;17.70;99.90
47660;DHT22;33403;43.608;1.458;2023-05-07T00:33:19;17.70;99.90
47660;DHT22;33403;43.608;1.458;2023-05-07T00:35:46;17.70;99.90
47660;DHT22;33403;43.608;1.458;2023-05-07T00:38:11;17.60;99.90
47660;DHT22;33403;43.608;1.458;2023-05-07T00:40:37;17.60;99.90
47660;DHT22;33403;43.608;1.458;2023-05-07T00:43:03;17.60;99.90
47660;DHT22;33403;43.608;1.458;2023-05-07T00:45:29;17.60;99.90
47660;DHT22;33403;43.608;1.458;2023-05-07T00:47:59;17.70;99.90
47660;DHT22;33403;43.608;1.458;2023-05-07T00:50:29;17.70;99.90
47660;DHT22;33403;43.608;1.458;2023-05-07T00:52:55;17.60;99.90
47660;DHT22;33403;43.608;1.458;2023-05-07T00:55:22;17.60;99.90
47660;DHT22;33403;43.608;1.458;2023-05-07T00:57:49;17.70;99.90
47660;DHT22;33403;43.608;1.458;2023-05-07T01:00:16;17.60;99.90
47660;DHT22;33403;43.608;1.458;2023-05-07T01:02:42;17.60;99.90
47660;DHT22;33403;43.608;1.458;2023-05-07T01:05:11;17.50;99.90
47660;DHT22;33403;43.608;1.458;2023-05-07T01:07:40;17.40;99.90
47660;DHT22;33403;43.608;1.458;2023-05-07T01:10:07;17.30;99.90
47660;DHT22;33403;43.608;1.458;2023-05-07T01:12:34;17.40;99.90
47660;DHT22;33403;43.608;1.458;2023-05-07T01:15:01;17.40;99.90
47660;DHT22;33403;43.608;1.458;2023-05-07T01:17:27;17.40;99.90
47660;DHT22;33403;43.608;1.458;2023-05-07T01:19:53;17.30;99.90
47660;DHT22;33403;43.608;1.458;2023-05-07T01:22:39;17.40;99.90
47660;DHT22;33403;43.608;1.458;2023-05-07T01:25:06;17.40;99.90
47660;DHT22;33403;43.608;1.458;2023-05-07T01:27:32;17.40;99.90
47660;DHT22;33403;43.608;1.458;2023-05-07T01:30:02;17.40;99.90
47660;DHT22;33403;43.608;1.458;2023-05-07T01:32:36;17.20;99.90
47660;DHT22;33403;43.608;1.458;2023-05-07T01:35:05;17.20;99.90
47660;DHT22;33403;43.608;1.458;2023-05-07T01:37:33;17.30;99.90
47660;DHT22;33403;43.608;1.458;2023-05-07T01:39:59;17.20;99.90
47660;DHT22;33403;43.608;1.458;2023-05-07T01:42:25;17.30;99.90
47660;DHT22;33403;43.608;1.458;2023-05-07T01:44:51;17.30;99.90
47660;DHT22;33403;43.608;1.458;2023-05-07T01:47:17;17.30;99.90
47660;DHT22;33403;43.608;1.458;2023-05-07T01:49:42;17.30;99.90
47660;DHT22;33403;43.608;1.458;2023-05-07T01:52:10;17.30;99.90
47660;DHT22;33403;43.608;1.458;2023-05-07T01:54:36;17.30;99.90
47660;DHT22;33403;43.608;1.458;2023-05-07T01:57:01;17.20;99.90
47660;DHT22;33403;43.608;1.458;2023-05-07T01:59:27;17.20;99.90
47660;DHT22;33403;43.608;1.458;2023-05-07T02:01:52;17.20;99.90
47660;DHT22;33403;43.608;1.458;2023-05-07T02:04:18;17.20;99.90
47660;DHT22;33403;43.608;1.458;2023-05-07T02:06:44;17.20;99.90
47660;DHT22;33403;43.608;1.458;2023-05-07T02:09:10;17.20;99.90
47660;DHT22;33403;43.608;1.458;2023-05-07T02:11:36;17.10;99.90
47660;DHT22;33403;43.608;1.458;2023-05-07T02:14:01;17.20;99.90
47660;DHT22;33403;43.608;1.458;2023-05-07T02:16:27;17.20;99.90
47660;DHT22;33403;43.608;1.458;2023-05-07T02:18:53;17.10;99.90
47660;DHT22;33403;43.608;1.458;2023-05-07T02:21:18;17.00;99.90
47660;DHT22;33403;43.608;1.458;2023-05-07T02:23:44;17.20;99.90
47660;DHT22;33403;43.608;1.458;2023-05-07T02:26:10;17.20;99.90
47660;DHT22;33403;43.608;1.458;2023-05-07T02:28:36;17.30;99.90
47660;DHT22;33403;43.608;1.458;2023-05-07T02:31:05;17.20;99.90
47660;DHT22;33403;43.608;1.458;2023-05-07T02:33:31;17.20;99.90
47660;DHT22;33403;43.608;1.458;2023-05-07T02:35:57;17.20;99.90
47660;DHT22;33403;43.608;1.458;2023-05-07T02:38:22;17.20;99.90
47660;DHT22;33403;43.608;1.458;2023-05-07T02:40:48;17.20;99.90
47660;DHT22;33403;43.608;1.458;2023-05-07T02:43:14;17.20;99.90
47660;DHT22;33403;43.608;1.458;2023-05-07T02:45:40;17.30;99.90
47660;DHT22;33403;43.608;1.458;2023-05-07T02:48:06;17.30;99.90
47660;DHT22;33403;43.608;1.458;2023-05-07T02:50:32;17.20;99.90
47660;DHT22;33403;43.608;1.458;2023-05-07T02:52:58;17.20;99.90
47660;DHT22;33403;43.608;1.458;2023-05-07T02:55:23;17.20;99.90
47660;DHT22;33403;43.608;1.458;2023-05-07T02:57:49;17.20;99.90
47660;DHT22;33403;43.608;1.458;2023-05-07T03:00:17;17.20;99.90
47660;DHT22;33403;43.608;1.458;2023-05-07T03:02:43;17.20;99.90
47660;DHT22;33403;43.608;1.458;2023-05-07T03:05:09;17.20;99.90
47660;DHT22;33403;43.608;1.458;2023-05-07T03:07:36;17.10;99.90
47660;DHT22;33403;43.608;1.458;2023-05-07T03:10:02;17.10;99.90
47660;DHT22;33403;43.608;1.458;2023-05-07T03:12:27;17.10;99.90
47660;DHT22;33403;43.608;1.458;2023-05-07T03:14:53;17.10;99.90
47660;DHT22;33403;43.608;1.458;2023-05-07T03:17:19;17.00;99.90
47660;DHT22;33403;43.608;1.458;2023-05-07T03:19:45;17.00;99.90
47660;DHT22;33403;43.608;1.458;2023-05-07T03:22:11;16.90;99.90
47660;DHT22;33403;43.608;1.458;2023-05-07T03:24:36;16.90;99.90
47660;DHT22;33403;43.608;1.458;2023-05-07T03:27:02;17.00;99.90
47660;DHT22;33403;43.608;1.458;2023-05-07T03:29:28;16.90;99.90
47660;DHT22;33403;43.608;1.458;2023-05-07T03:31:53;16.90;99.90
47660;DHT22;33403;43.608;1.458;2023-05-07T03:34:19;16.90;99.90
47660;DHT22;33403;43.608;1.458;2023-05-07T03:36:48;17.00;99.90
47660;DHT22;33403;43.608;1.458;2023-05-07T03:39:14;17.00;99.90
47660;DHT22;33403;43.608;1.458;2023-05-07T03:41:40;17.10;99.90
47660;DHT22;33403;43.608;1.458;2023-05-07T03:44:06;17.00;99.90
47660;DHT22;33403;43.608;1.458;2023-05-07T03:46:31;17.00;99.90
47660;DHT22;33403;43.608;1.458;2023-05-07T03:48:58;17.10;99.90
47660;DHT22;33403;43.608;1.458;2023-05-07T03:51:24;17.00;99.90
47660;DHT22;33403;43.608;1.458;2023-05-07T03:53:50;17.10;99.90
47660;DHT22;33403;43.608;1.458;2023-05-07T03:56:18;17.00;99.90
47660;DHT22;33403;43.608;1.458;2023-05-07T03:58:44;16.90;99.90
47660;DHT22;33403;43.608;1.458;2023-05-07T04:01:10;16.90;99.90
47660;DHT22;33403;43.608;1.458;2023-05-07T04:03:36;16.80;99.90
47660;DHT22;33403;43.608;1.458;2023-05-07T04:06:01;16.80;99.90
47660;DHT22;33403;43.608;1.458;2023-05-07T04:08:27;16.80;99.90
47660;DHT22;33403;43.608;1.458;2023-05-07T04:10:56;16.70;99.90
47660;DHT22;33403;43.608;1.458;2023-05-07T04:13:22;16.70;99.90
47660;DHT22;33403;43.608;1.458;2023-05-07T04:15:48;16.80;99.90
47660;DHT22;33403;43.608;1.458;2023-05-07T04:18:14;16.70;99.90
47660;DHT22;33403;43.608;1.458;2023-05-07T04:20:41;16.70;99.90
47660;DHT22;33403;43.608;1.458;2023-05-07T04:23:07;16.70;99.90
47660;DHT22;33403;43.608;1.458;2023-05-07T04:25:33;16.70;99.90
47660;DHT22;33403;43.608;1.458;2023-05-07T04:27:58;16.70;99.90
47660;DHT22;33403;43.608;1.458;2023-05-07T04:30:25;16.80;99.90
47660;DHT22;33403;43.608;1.458;2023-05-07T04:32:51;16.90;99.90
47660;DHT22;33403;43.608;1.458;2023-05-07T04:35:17;16.90;99.90
47660;DHT22;33403;43.608;1.458;2023-05-07T04:37:43;16.90;99.90
47660;DHT22;33403;43.608;1.458;2023-05-07T04:40:08;16.80;99.90
47660;DHT22;33403;43.608;1.458;2023-05-07T04:42:35;16.90;99.90
47660;DHT22;33403;43.608;1.458;2023-05-07T04:45:01;16.90;99.90
47660;DHT22;33403;43.608;1.458;2023-05-07T04:47:27;16.90;99.90
47660;DHT22;33403;43.608;1.458;2023-05-07T04:49:52;16.90;99.90
47660;DHT22;33403;43.608;1.458;2023-05-07T04:52:18;16.90;99.90
47660;DHT22;33403;43.608;1.458;2023-05-07T04:54:44;16.70;99.90
47660;DHT22;33403;43.608;1.458;2023-05-07T04:57:09;16.70;99.90
47660;DHT22;33403;43.608;1.458;2023-05-07T04:59:35;16.60;99.90
47660;DHT22;33403;43.608;1.458;2023-05-07T05:02:01;16.60;99.90
47660;DHT22;33403;43.608;1.458;2023-05-07T05:04:26;16.70;99.90
47660;DHT22;33403;43.608;1.458;2023-05-07T05:06:52;16.70;99.90
47660;DHT22;33403;43.608;1.458;2023-05-07T05:09:18;16.80;99.90
47660;DHT22;33403;43.608;1.458;2023-05-07T05:11:44;16.80;99.90
47660;DHT22;33403;43.608;1.458;2023-05-07T05:14:09;16.70;99.90
47660;DHT22;33403;43.608;1.458;2023-05-07T05:16:35;16.80;99.90
47660;DHT22;33403;43.608;1.458;2023-05-07T05:19:01;16.80;99.90
47660;DHT22;33403;43.608;1.458;2023-05-07T05:21:27;16.80;99.90
47660;DHT22;33403;43.608;1.458;2023-05-07T05:23:53;16.70;99.90
47660;DHT22;33403;43.608;1.458;2023-05-07T05:26:19;16.60;99.90
47660;DHT22;33403;43.608;1.458;2023-05-07T05:28:46;16.70;99.90
47660;DHT22;33403;43.608;1.458;2023-05-07T05:31:12;16.80;99.90
47660;DHT22;33403;43.608;1.458;2023-05-07T05:33:39;16.80;99.90
47660;DHT22;33403;43.608;1.458;2023-05-07T05:36:05;16.80;99.90
47660;DHT22;33403;43.608;1.458;2023-05-07T05:38:31;16.80;99.90
47660;DHT22;33403;43.608;1.458;2023-05-07T05:40:57;16.90;99.90
47660;DHT22;33403;43.608;1.458;2023-05-07T05:43:23;16.80;99.90
47660;DHT22;33403;43.608;1.458;2023-05-07T05:45:48;16.80;99.90
47660;DHT22;33403;43.608;1.458;2023-05-07T05:48:14;16.90;99.90
47660;DHT22;33403;43.608;1.458;2023-05-07T05:50:41;16.90;99.90
47660;DHT22;33403;43.608;1.458;2023-05-07T05:53:07;16.90;99.90
47660;DHT22;33403;43.608;1.458;2023-05-07T05:55:33;16.90;99.90
47660;DHT22;33403;43.608;1.458;2023-05-07T05:58:00;16.90;99.90
47660;DHT22;33403;43.608;1.458;2023-05-07T06:00:26;16.90;99.90
47660;DHT22;33403;43.608;1.458;2023-05-07T06:02:52;16.80;99.90
47660;DHT22;33403;43.608;1.458;2023-05-07T06:05:17;16.80;99.90
47660;DHT22;33403;43.608;1.458;2023-05-07T06:07:43;16.80;99.90
47660;DHT22;33403;43.608;1.458;2023-05-07T06:10:09;16.80;99.90
47660;DHT22;33403;43.608;1.458;2023-05-07T06:12:35;16.80;99.90
47660;DHT22;33403;43.608;1.458;2023-05-07T06:15:00;16.80;99.90
47660;DHT22;33403;43.608;1.458;2023-05-07T06:17:26;16.90;99.90
47660;DHT22;33403;43.608;1.458;2023-05-07T06:19:52;16.90;99.90
47660;DHT22;33403;43.608;1.458;2023-05-07T06:22:18;16.90;99.90
47660;DHT22;33403;43.608;1.458;2023-05-07T06:24:44;16.90;99.90
47660;DHT22;33403;43.608;1.458;2023-05-07T06:27:09;16.90;99.90
47660;DHT22;33403;43.608;1.458;2023-05-07T06:29:35;16.90;99.90
47660;DHT22;33403;43.608;1.458;2023-05-07T06:32:11;16.90;99.90
47660;DHT22;33403;43.608;1.458;2023-05-07T06:34:38;16.90;99.90
47660;DHT22;33403;43.608;1.458;2023-05-07T06:37:04;16.90;99.90
47660;DHT22;33403;43.608;1.458;2023-05-07T06:39:30;16.90;99.90
47660;DHT22;33403;43.608;1.458;2023-05-07T06:41:56;16.90;99.90
47660;DHT22;33403;43.608;1.458;2023-05-07T06:44:22;16.90;99.90
47660;DHT22;33403;43.608;1.458;2023-05-07T06:46:48;16.80;99.90
47660;DHT22;33403;43.608;1.458;2023-05-07T06:49:13;16.70;99.90
47660;DHT22;33403;43.608;1.458;2023-05-07T06:51:39;16.80;99.90
47660;DHT22;33403;43.608;1.458;2023-05-07T06:54:05;16.80;99.90
47660;DHT22;33403;43.608;1.458;2023-05-07T06:56:31;16.80;99.90
47660;DHT22;33403;43.608;1.458;2023-05-07T06:58:57;16.80;99.90
47660;DHT22;33403;43.608;1.458;2023-05-07T07:01:22;16.90;99.90
47660;DHT22;33403;43.608;1.458;2023-05-07T07:03:48;17.00;99.90
47660;DHT22;33403;43.608;1.458;2023-05-07T07:06:14;17.10;99.90
47660;DHT22;33403;43.608;1.458;2023-05-07T07:08:40;17.10;99.90
47660;DHT22;33403;43.608;1.458;2023-05-07T07:11:06;17.10;99.90
47660;DHT22;33403;43.608;1.458;2023-05-07T07:13:31;17.10;99.90
47660;DHT22;33403;43.608;1.458;2023-05-07T07:15:57;17.10;99.90
47660;DHT22;33403;43.608;1.458;2023-05-07T07:18:23;17.10;99.90
47660;DHT22;33403;43.608;1.458;2023-05-07T07:20:49;17.10;99.90
47660;DHT22;33403;43.608;1.458;2023-05-07T07:23:14;17.00;99.90
47660;DHT22;33403;43.608;1.458;2023-05-07T07:25:40;17.10;99.90
47660;DHT22;33403;43.608;1.458;2023-05-07T07:28:06;17.00;99.90
47660;DHT22;33403;43.608;1.458;2023-05-07T07:30:32;17.00;99.90
47660;DHT22;33403;43.608;1.458;2023-05-07T07:32:57;17.10;99.90
47660;DHT22;33403;43.608;1.458;2023-05-07T07:35:28;17.10;99.90
47660;DHT22;33403;43.608;1.458;2023-05-07T07:37:54;17.20;99.90
47660;DHT22;33403;43.608;1.458;2023-05-07T07:40:20;17.20;99.90
47660;DHT22;33403;43.608;1.458;2023-05-07T07:42:45;17.20;99.90
47660;DHT22;33403;43.608;1.458;2023-05-07T07:45:11;17.30;99.90
47660;DHT22;33403;43.608;1.458;2023-05-07T07:47:37;17.30;99.90
47660;DHT22;33403;43.608;1.458;2023-05-07T07:50:04;17.40;99.90
47660;DHT22;33403;43.608;1.458;2023-05-07T07:52:29;17.50;99.90
47660;DHT22;33403;43.608;1.458;2023-05-07T07:54:55;17.50;99.90
47660;DHT22;33403;43.608;1.458;2023-05-07T07:57:20;17.70;99.90
47660;DHT22;33403;43.608;1.458;2023-05-07T07:59:46;17.80;99.90
47660;DHT22;33403;43.608;1.458;2023-05-07T08:02:12;17.80;99.90
47660;DHT22;33403;43.608;1.458;2023-05-07T08:04:37;17.90;99.90
47660;DHT22;33403;43.608;1.458;2023-05-07T08:07:03;17.90;99.90
47660;DHT22;33403;43.608;1.458;2023-05-07T08:09:29;17.90;99.90
47660;DHT22;33403;43.608;1.458;2023-05-07T08:11:55;17.90;99.90
47660;DHT22;33403;43.608;1.458;2023-05-07T08:14:20;17.90;99.90
47660;DHT22;33403;43.608;1.458;2023-05-07T08:16:46;18.00;99.90
47660;DHT22;33403;43.608;1.458;2023-05-07T08:19:11;18.00;99.90
47660;DHT22;33403;43.608;1.458;2023-05-07T08:21:40;18.00;99.90
47660;DHT22;33403;43.608;1.458;2023-05-07T08:24:06;18.00;99.90
47660;DHT22;33403;43.608;1.458;2023-05-07T08:26:32;18.00;99.90
47660;DHT22;33403;43.608;1.458;2023-05-07T08:28:57;18.10;99.90
47660;DHT22;33403;43.608;1.458;2023-05-07T08:31:23;18.10;99.90
47660;DHT22;33403;43.608;1.458;2023-05-07T08:33:49;18.20;99.90
47660;DHT22;33403;43.608;1.458;2023-05-07T08:36:15;18.20;99.90
47660;DHT22;33403;43.608;1.458;2023-05-07T08:38:40;18.20;99.90
47660;DHT22;33403;43.608;1.458;2023-05-07T08:41:10;18.10;99.90
47660;DHT22;33403;43.608;1.458;2023-05-07T08:43:36;18.20;99.90
47660;DHT22;33403;43.608;1.458;2023-05-07T08:46:04;18.40;99.90
47660;DHT22;33403;43.608;1.458;2023-05-07T08:48:31;18.70;99.90
47660;DHT22;33403;43.608;1.458;2023-05-07T08:50:58;18.90;99.90
47660;DHT22;33403;43.608;1.458;2023-05-07T08:53:24;18.80;99.90
47660;DHT22;33403;43.608;1.458;2023-05-07T08:55:52;18.70;99.90
47660;DHT22;33403;43.608;1.458;2023-05-07T08:58:18;18.60;99.90
47660;DHT22;33403;43.608;1.458;2023-05-07T09:00:44;18.60;99.90
47660;DHT22;33403;43.608;1.458;2023-05-07T09:03:10;18.50;99.90
47660;DHT22;33403;43.608;1.458;2023-05-07T09:05:39;18.40;99.90
47660;DHT22;33403;43.608;1.458;2023-05-07T09:08:06;18.30;99.90
47660;DHT22;33403;43.608;1.458;2023-05-07T09:10:34;18.20;99.90
47660;DHT22;33403;43.608;1.458;2023-05-07T09:13:00;18.30;99.90
47660;DHT22;33403;43.608;1.458;2023-05-07T09:15:27;18.30;99.90
47660;DHT22;33403;43.608;1.458;2023-05-07T09:17:53;18.30;99.90
47660;DHT22;33403;43.608;1.458;2023-05-07T09:20:19;18.40;99.90
47660;DHT22;33403;43.608;1.458;2023-05-07T09:22:44;18.50;99.90
47660;DHT22;33403;43.608;1.458;2023-05-07T09:25:10;18.80;99.90
47660;DHT22;33403;43.608;1.458;2023-05-07T09:27:36;19.00;99.90
47660;DHT22;33403;43.608;1.458;2023-05-07T09:30:09;19.10;99.90
47660;DHT22;33403;43.608;1.458;2023-05-07T09:32:35;19.10;99.90
47660;DHT22;33403;43.608;1.458;2023-05-07T09:35:03;19.00;99.90
47660;DHT22;33403;43.608;1.458;2023-05-07T09:37:31;18.80;99.90
47660;DHT22;33403;43.608;1.458;2023-05-07T09:39:58;18.90;99.90
47660;DHT22;33403;43.608;1.458;2023-05-07T09:42:24;19.10;99.90
47660;DHT22;33403;43.608;1.458;2023-05-07T09:44:50;19.20;99.90
47660;DHT22;33403;43.608;1.458;2023-05-07T09:47:19;19.20;99.90
47660;DHT22;33403;43.608;1.458;2023-05-07T09:49:47;19.10;99.90
47660;DHT22;33403;43.608;1.458;2023-05-07T09:52:13;18.90;99.90
47660;DHT22;33403;43.608;1.458;2023-05-07T09:54:40;18.60;99.90
47660;DHT22;33403;43.608;1.458;2023-05-07T09:57:11;18.40;99.90
47660;DHT22;33403;43.608;1.458;2023-05-07T09:59:38;18.40;99.90
47660;DHT22;33403;43.608;1.458;2023-05-07T10:02:04;18.30;99.90
47660;DHT22;33403;43.608;1.458;2023-05-07T10:04:31;18.20;99.90
47660;DHT22;33403;43.608;1.458;2023-05-07T10:06:58;18.10;99.90
47660;DHT22;33403;43.608;1.458;2023-05-07T10:09:26;18.10;99.90
47660;DHT22;33403;43.608;1.458;2023-05-07T10:11:52;18.10;99.90
47660;DHT22;33403;43.608;1.458;2023-05-07T10:14:20;18.10;99.90
47660;DHT22;33403;43.608;1.458;2023-05-07T10:16:46;18.10;99.90
47660;DHT22;33403;43.608;1.458;2023-05-07T10:19:12;18.20;99.90
47660;DHT22;33403;43.608;1.458;2023-05-07T10:21:44;18.20;99.90
47660;DHT22;33403;43.608;1.458;2023-05-07T10:24:22;18.30;99.90
47660;DHT22;33403;43.608;1.458;2023-05-07T10:26:52;18.30;99.90
47660;DHT22;33403;43.608;1.458;2023-05-07T10:29:38;18.40;99.90
47660;DHT22;33403;43.608;1.458;2023-05-07T10:34:50;18.60;99.90
47660;DHT22;33403;43.608;1.458;2023-05-07T10:37:18;18.80;99.90
47660;DHT22;33403;43.608;1.458;2023-05-07T10:39:45;19.10;99.90
47660;DHT22;33403;43.608;1.458;2023-05-07T10:42:11;19.40;99.90
47660;DHT22;33403;43.608;1.458;2023-05-07T10:44:37;19.70;99.90
47660;DHT22;33403;43.608;1.458;2023-05-07T10:47:08;19.70;99.90
47660;DHT22;33403;43.608;1.458;2023-05-07T10:52:21;19.70;99.90
47660;DHT22;33403;43.608;1.458;2023-05-07T10:57:40;19.80;99.90
47660;DHT22;33403;43.608;1.458;2023-05-07T11:03:10;20.50;99.90
47660;DHT22;33403;43.608;1.458;2023-05-07T11:05:36;20.70;99.90
47660;DHT22;33403;43.608;1.458;2023-05-07T11:08:03;20.80;99.90
47660;DHT22;33403;43.608;1.458;2023-05-07T11:13:14;20.40;99.90
47660;DHT22;33403;43.608;1.458;2023-05-07T11:15:47;20.30;99.90
47660;DHT22;33403;43.608;1.458;2023-05-07T11:18:17;20.40;99.90
47660;DHT22;33403;43.608;1.458;2023-05-07T11:20:59;20.40;99.90
47660;DHT22;33403;43.608;1.458;2023-05-07T11:26:10;20.30;99.90
47660;DHT22;33403;43.608;1.458;2023-05-07T11:28:41;20.20;99.90
47660;DHT22;33403;43.608;1.458;2023-05-07T11:31:08;20.20;99.90
47660;DHT22;33403;43.608;1.458;2023-05-07T11:33:35;20.20;99.90
47660;DHT22;33403;43.608;1.458;2023-05-07T11:36:02;20.30;99.90
47660;DHT22;33403;43.608;1.458;2023-05-07T11:38:29;20.50;99.90
47660;DHT22;33403;43.608;1.458;2023-05-07T11:40:57;20.90;99.90
47660;DHT22;33403;43.608;1.458;2023-05-07T11:43:23;21.00;99.90
47660;DHT22;33403;43.608;1.458;2023-05-07T11:45:49;20.90;99.90
47660;DHT22;33403;43.608;1.458;2023-05-07T11:48:16;20.90;99.90
47660;DHT22;33403;43.608;1.458;2023-05-07T11:51:08;20.90;99.90
47660;DHT22;33403;43.608;1.458;2023-05-07T11:53:41;20.80;99.90
47660;DHT22;33403;43.608;1.458;2023-05-07T11:56:14;20.70;99.90
47660;DHT22;33403;43.608;1.458;2023-05-07T11:58:41;20.70;99.90
47660;DHT22;33403;43.608;1.458;2023-05-07T12:01:08;20.50;99.90
47660;DHT22;33403;43.608;1.458;2023-05-07T12:03:39;20.40;99.90
47660;DHT22;33403;43.608;1.458;2023-05-07T12:06:08;20.40;99.90
47660;DHT22;33403;43.608;1.458;2023-05-07T12:08:36;20.50;99.90
47660;DHT22;33403;43.608;1.458;2023-05-07T12:11:03;20.50;99.90
47660;DHT22;33403;43.608;1.458;2023-05-07T12:13:28;20.50;99.90
47660;DHT22;33403;43.608;1.458;2023-05-07T12:15:56;20.70;99.90
47660;DHT22;33403;43.608;1.458;2023-05-07T12:18:22;20.80;99.90
47660;DHT22;33403;43.608;1.458;2023-05-07T12:20:49;21.00;99.90
47660;DHT22;33403;43.608;1.458;2023-05-07T12:23:15;21.00;99.90
47660;DHT22;33403;43.608;1.458;2023-05-07T12:25:43;21.20;99.90
47660;DHT22;33403;43.608;1.458;2023-05-07T12:28:16;21.00;99.90
47660;DHT22;33403;43.608;1.458;2023-05-07T12:30:44;20.70;99.90
47660;DHT22;33403;43.608;1.458;2023-05-07T12:33:10;20.80;99.90
47660;DHT22;33403;43.608;1.458;2023-05-07T12:35:39;21.00;99.90
47660;DHT22;33403;43.608;1.458;2023-05-07T12:38:12;21.30;99.90
47660;DHT22;33403;43.608;1.458;2023-05-07T12:40:42;21.60;99.90
47660;DHT22;33403;43.608;1.458;2023-05-07T12:43:14;21.80;99.90
47660;DHT22;33403;43.608;1.458;2023-05-07T12:45:41;21.90;99.90
47660;DHT22;33403;43.608;1.458;2023-05-07T12:48:09;21.70;99.90
47660;DHT22;33403;43.608;1.458;2023-05-07T12:50:35;21.60;99.90
47660;DHT22;33403;43.608;1.458;2023-05-07T12:53:04;21.50;99.90
47660;DHT22;33403;43.608;1.458;2023-05-07T12:55:58;21.60;99.90
47660;DHT22;33403;43.608;1.458;2023-05-07T12:58:25;21.60;99.90
47660;DHT22;33403;43.608;1.458;2023-05-07T13:00:52;21.40;99.90
47660;DHT22;33403;43.608;1.458;2023-05-07T13:03:29;21.20;99.90
47660;DHT22;33403;43.608;1.458;2023-05-07T13:05:57;21.10;99.90
47660;DHT22;33403;43.608;1.458;2023-05-07T13:08:35;20.90;99.90
47660;DHT22;33403;43.608;1.458;2023-05-07T13:11:04;20.90;99.90
47660;DHT22;33403;43.608;1.458;2023-05-07T13:13:31;20.90;99.90
47660;DHT22;33403;43.608;1.458;2023-05-07T13:15:57;21.10;99.90
47660;DHT22;33403;43.608;1.458;2023-05-07T13:18:24;21.10;99.90
47660;DHT22;33403;43.608;1.458;2023-05-07T13:20:50;21.10;99.90
47660;DHT22;33403;43.608;1.458;2023-05-07T13:23:17;21.10;99.90
47660;DHT22;33403;43.608;1.458;2023-05-07T13:25:43;21.10;99.90
47660;DHT22;33403;43.608;1.458;2023-05-07T13:28:08;21.30;99.90
47660;DHT22;33403;43.608;1.458;2023-05-07T13:30:34;21.50;99.90
47660;DHT22;33403;43.608;1.458;2023-05-07T13:33:00;21.50;99.90
47660;DHT22;33403;43.608;1.458;2023-05-07T13:35:26;21.50;99.90
47660;DHT22;33403;43.608;1.458;2023-05-07T13:37:52;21.60;99.90
47660;DHT22;33403;43.608;1.458;2023-05-07T13:40:18;21.70;99.90
47660;DHT22;33403;43.608;1.458;2023-05-07T13:42:44;21.60;99.90
47660;DHT22;33403;43.608;1.458;2023-05-07T13:45:10;21.50;99.90
47660;DHT22;33403;43.608;1.458;2023-05-07T13:47:36;21.50;99.90
47660;DHT22;33403;43.608;1.458;2023-05-07T13:50:01;21.50;99.90
47660;DHT22;33403;43.608;1.458;2023-05-07T13:52:27;21.50;99.90
47660;DHT22;33403;43.608;1.458;2023-05-07T13:54:53;21.30;99.90
47660;DHT22;33403;43.608;1.458;2023-05-07T13:57:20;21.10;99.90
47660;DHT22;33403;43.608;1.458;2023-05-07T13:59:46;20.90;99.90
47660;DHT22;33403;43.608;1.458;2023-05-07T14:02:11;20.80;99.90
47660;DHT22;33403;43.608;1.458;2023-05-07T14:04:37;20.70;99.90
47660;DHT22;33403;43.608;1.458;2023-05-07T14:07:03;20.70;99.90
47660;DHT22;33403;43.608;1.458;2023-05-07T14:09:29;20.80;99.90
47660;DHT22;33403;43.608;1.458;2023-05-07T14:11:54;20.90;99.90
47660;DHT22;33403;43.608;1.458;2023-05-07T14:14:20;20.80;99.90
47660;DHT22;33403;43.608;1.458;2023-05-07T14:16:46;20.70;99.90
47660;DHT22;33403;43.608;1.458;2023-05-07T14:19:12;20.60;99.90
47660;DHT22;33403;43.608;1.458;2023-05-07T14:21:38;20.60;99.90
47660;DHT22;33403;43.608;1.458;2023-05-07T14:24:05;20.70;99.90
47660;DHT22;33403;43.608;1.458;2023-05-07T14:26:31;20.70;99.90
47660;DHT22;33403;43.608;1.458;2023-05-07T14:28:56;20.70;99.90
47660;DHT22;33403;43.608;1.458;2023-05-07T14:31:24;20.60;99.90
47660;DHT22;33403;43.608;1.458;2023-05-07T14:33:49;20.60;99.90
47660;DHT22;33403;43.608;1.458;2023-05-07T14:36:16;20.70;99.90
47660;DHT22;33403;43.608;1.458;2023-05-07T14:38:42;20.90;99.90
47660;DHT22;33403;43.608;1.458;2023-05-07T14:41:08;21.10;99.90
47660;DHT22;33403;43.608;1.458;2023-05-07T14:43:34;21.20;99.90
47660;DHT22;33403;43.608;1.458;2023-05-07T14:45:59;21.40;99.90
47660;DHT22;33403;43.608;1.458;2023-05-07T14:48:25;21.50;99.90
47660;DHT22;33403;43.608;1.458;2023-05-07T14:50:51;21.50;99.90
47660;DHT22;33403;43.608;1.458;2023-05-07T14:53:16;21.40;99.90
47660;DHT22;33403;43.608;1.458;2023-05-07T14:55:42;21.30;99.90
47660;DHT22;33403;43.608;1.458;2023-05-07T14:58:08;21.10;99.90
47660;DHT22;33403;43.608;1.458;2023-05-07T15:00:33;21.00;99.90
47660;DHT22;33403;43.608;1.458;2023-05-07T15:03:06;21.00;99.90
47660;DHT22;33403;43.608;1.458;2023-05-07T15:05:32;21.00;99.90
47660;DHT22;33403;43.608;1.458;2023-05-07T15:07:58;21.10;99.90
47660;DHT22;33403;43.608;1.458;2023-05-07T15:10:24;21.20;99.90
47660;DHT22;33403;43.608;1.458;2023-05-07T15:12:49;21.20;99.90
47660;DHT22;33403;43.608;1.458;2023-05-07T15:15:15;21.30;99.90
47660;DHT22;33403;43.608;1.458;2023-05-07T15:17:41;21.30;99.90
47660;DHT22;33403;43.608;1.458;2023-05-07T15:20:07;21.30;99.90
47660;DHT22;33403;43.608;1.458;2023-05-07T15:22:33;21.20;99.90
47660;DHT22;33403;43.608;1.458;2023-05-07T15:24:59;21.00;99.90
47660;DHT22;33403;43.608;1.458;2023-05-07T15:27:25;20.70;99.90
47660;DHT22;33403;43.608;1.458;2023-05-07T15:29:51;20.40;99.90
47660;DHT22;33403;43.608;1.458;2023-05-07T15:32:17;20.30;99.90
47660;DHT22;33403;43.608;1.458;2023-05-07T15:34:43;20.20;99.90
47660;DHT22;33403;43.608;1.458;2023-05-07T15:37:08;20.30;99.90
47660;DHT22;33403;43.608;1.458;2023-05-07T15:39:35;20.40;99.90
47660;DHT22;33403;43.608;1.458;2023-05-07T15:42:00;20.40;99.90
47660;DHT22;33403;43.608;1.458;2023-05-07T15:44:26;20.40;99.90